Time;durP1;ratioP1;P1;durP2;ratioP2;P2;SDS_P1;SDS_P2;PMS_P1;PMS_P2;Temp;Humidity;BMP_temperature;BMP_pressure;BME280_temperature;BME280_humidity;BME280_pressure;Samples;Min_cycle;Max_cycle;Signal;HPM_P1;HPM_P2
2022/03/26 00:04:29;;;;;;;;;;;;;;;-139.34;100.00;63888.56;10614568;27;19919;-64
2022/03/26 00:09:50;;;;;;;;;;;;;;;-139.34;100.00;63888.56;10613458;27;19947;-64
2022/03/26 00:15:12;;;;;;;;;;;;;;;-139.34;100.00;63888.56;10624580;27;19923;-64
2022/03/26 00:20:34;;;;;;;;;;;;;;;-139.34;100.00;63888.56;10618527;27;19926;-64
2022/03/26 00:25:58;;;;;;;;;;;;;;;-139.34;100.00;63888.56;10642371;27;20033;-64
2022/03/26 00:31:19;;;;;;;;;;;;;;;-139.34;100.00;63888.56;10643092;27;20299;-65
2022/03/26 00:36:41;;;;;;;;;;;;;;;-139.34;100.00;63888.56;10639947;27;20286;-64
2022/03/26 00:42:03;;;;;;;;;;;;;;;-139.34;100.00;63888.56;10636117;27;19930;-64
2022/03/26 00:47:24;;;;;;;;;;;;;;;-139.34;100.00;63888.56;10606614;27;19930;-64
2022/03/26 00:52:47;;;;;;;;;;;;;;;-139.34;100.00;63888.56;10612943;27;19930;-64
2022/03/26 00:58:08;;;;;;;;;;;;;;;-139.34;100.00;63888.56;10607573;27;20371;-64
2022/03/26 01:03:31;;;;;;;;;;;;;;;-139.34;100.00;63888.56;10643354;27;19926;-64
2022/03/26 01:08:53;;;;;;;;;;;;;;;-139.34;100.00;63888.56;10619952;27;19953;-64
2022/03/26 01:14:15;;;;;;;;;;;;;;;-139.34;100.00;63888.56;10657124;27;19919;-64
2022/03/26 01:19:37;;;;;;;;;;;;;;;-139.34;100.00;63888.56;10637518;27;19927;-64
2022/03/26 01:24:59;;;;;;;;;;;;;;;-139.34;100.00;63888.56;10589192;27;19943;-64
2022/03/26 01:30:20;;;;;;;;;;;;;;;-139.34;100.00;63888.56;10634190;27;20388;-64
2022/03/26 01:35:42;;;;;;;;;;;;;;;-139.34;100.00;63888.56;10602793;27;20287;-64
2022/03/26 01:41:03;;;;;;;;;;;;;;;-139.34;100.00;63888.56;10627536;27;19926;-64
2022/03/26 01:46:25;;;;;;;;;;;;;;;-139.34;100.00;63888.56;10612302;27;19919;-64
2022/03/26 01:51:47;;;;;;;;;;;;;;;-139.34;100.00;63888.56;10610769;27;19924;-65
2022/03/26 01:57:11;;;;;;;;;;;;;;;-139.34;100.00;63888.56;10616869;27;19919;-64
2022/03/26 02:02:34;;;;;;;;;;;;;;;-139.34;100.00;63888.56;10612530;27;19930;-64
2022/03/26 02:07:55;;;;;;;;;;;;;;;-139.34;100.00;63888.56;10623738;27;20417;-63
2022/03/26 02:13:17;;;;;;;;;;;;;;;-139.34;100.00;63888.56;10601938;28;20609;-64
2022/03/26 02:18:39;;;;;;;;;;;;;;;-139.34;100.00;63888.56;10619541;27;19923;-64
2022/03/26 02:24:06;;;;;;;;;;;;;;;-139.34;100.00;63888.56;10625057;27;19941;-64
2022/03/26 02:29:28;;;;;;;;;;;;;;;-139.34;100.00;63888.56;10640956;27;19922;-64
2022/03/26 02:34:50;;;;;;;;;;;;;;;-139.34;100.00;63888.56;10623732;27;19926;-64
2022/03/26 02:40:27;;;;;;;;;;;;;;;-139.34;100.00;63888.56;10624942;27;19927;-64
2022/03/26 02:45:48;;;;;;;;;;;;;;;-139.34;100.00;63888.56;10628880;27;20394;-64
2022/03/26 02:51:10;;;;;;;;;;;;;;;-139.34;100.00;63888.56;10647627;27;19958;-64
2022/03/26 02:56:32;;;;;;;;;;;;;;;-139.34;100.00;63888.56;10643452;27;19920;-64
2022/03/26 03:01:53;;;;;;;;;;;;;;;-139.34;100.00;63888.56;10608863;27;20409;-64
2022/03/26 03:07:15;;;;;;;;;;;;;;;-139.34;100.00;63888.56;10627321;27;19931;-64
2022/03/26 03:12:37;;;;;;;;;;;;;;;-139.34;100.00;63888.56;10609352;27;19919;-64
2022/03/26 03:17:59;;;;;;;;;;;;;;;-139.34;100.00;63888.56;10620695;27;19919;-64
2022/03/26 03:23:20;;;;;;;;;;;;;;;-139.34;100.00;63888.56;10645637;27;19924;-64
2022/03/26 03:28:42;;;;;;;;;;;;;;;-139.34;100.00;63888.56;10650730;27;19918;-64
2022/03/26 03:34:04;;;;;;;;;;;;;;;-139.34;100.00;63888.56;10613178;27;19926;-64
2022/03/26 03:39:26;;;;;;;;;;;;;;;-139.34;100.00;63888.56;10614657;27;20402;-64
2022/03/26 03:44:47;;;;;;;;;;;;;;;-139.34;100.00;63888.56;10638247;27;19930;-64
2022/03/26 03:50:09;;;;;;;;;;;;;;;-139.34;100.00;63888.56;10623294;27;20351;-64
2022/03/26 03:55:31;;;;;;;;;;;;;;;-139.34;100.00;63888.56;10634185;27;19923;-64
2022/03/26 04:00:52;;;;;;;;;;;;;;;-139.34;100.00;63888.56;10631449;27;19919;-64
2022/03/26 04:06:14;;;;;;;;;;;;;;;-139.34;100.00;63888.56;10648724;27;19973;-65
2022/03/26 04:11:36;;;;;;;;;;;;;;;-139.34;100.00;63888.56;10640601;27;20295;-64
2022/03/26 04:16:57;;;;;;;;;;;;;;;-139.34;100.00;63888.56;10625997;27;20342;-65
2022/03/26 04:22:19;;;;;;;;;;;;;;;-139.34;100.00;63888.56;10607314;27;19927;-64
2022/03/26 04:27:43;;;;;;;;;;;;;;;-139.34;100.00;63888.56;10639779;27;19957;-64
2022/03/26 04:33:04;;;;;;;;;;;;;;;-139.34;100.00;63888.56;10631459;27;19934;-64
2022/03/26 04:38:26;;;;;;;;;;;;;;;-139.34;100.00;63888.56;10645836;27;20386;-64
2022/03/26 04:43:47;;;;;;;;;;;;;;;-139.34;100.00;63888.56;10629466;27;19923;-64
2022/03/26 04:49:09;;;;;;;;;;;;;;;-139.34;100.00;63888.56;10616782;27;19919;-64
2022/03/26 04:54:30;;;;;;;;;;;;;;;-139.34;100.00;63888.56;10623388;27;19925;-64
2022/03/26 04:59:52;;;;;;;;;;;;;;;-139.34;100.00;63888.56;10598071;27;19919;-64
2022/03/26 05:05:14;;;;;;;;;;;;;;;-139.34;100.00;63888.56;10629446;27;19919;-64
2022/03/26 05:10:36;;;;;;;;;;;;;;;-139.34;100.00;63888.56;10651379;27;19962;-64
2022/03/26 05:15:57;;;;;;;;;;;;;;;-139.34;100.00;63888.56;10638631;27;19928;-64
2022/03/26 05:21:20;;;;;;;;;;;;;;;-139.34;100.00;63888.56;10636223;27;19970;-64
2022/03/26 05:26:42;;;;;;;;;;;;;;;-139.34;100.00;63888.56;10613803;27;19931;-63
2022/03/26 05:32:04;;;;;;;;;;;;;;;-139.34;100.00;63888.56;10630927;27;19919;-64
2022/03/26 05:37:25;;;;;;;;;;;;;;;-139.34;100.00;63888.56;10616502;27;19926;-64
2022/03/26 05:42:48;;;;;;;;;;;;;;;-139.34;100.00;63888.56;10629486;27;19923;-64
2022/03/26 05:48:09;;;;;;;;;;;;;;;-139.34;100.00;63888.56;10635483;27;20852;-64
2022/03/26 05:53:31;;;;;;;;;;;;;;;-139.34;100.00;63888.56;10633569;27;19934;-70
2022/03/26 05:58:53;;;;;;;;;;;;;;;-139.34;100.00;63888.56;10642035;27;20375;-71
2022/03/26 06:04:15;;;;;;;;;;;;;;;-139.34;100.00;63888.56;10637560;27;19919;-70
2022/03/26 06:09:37;;;;;;;;;;;;;;;-139.34;100.00;63888.56;10618006;27;19998;-70
2022/03/26 06:14:59;;;;;;;;;;;;;;;-139.34;100.00;63888.56;10591527;27;19919;-71
2022/03/26 06:20:20;;;;;;;;;;;;;;;-139.34;100.00;63888.56;10609051;27;19923;-65
2022/03/26 06:25:42;;;;;;;;;;;;;;;-139.34;100.00;63888.56;10636155;27;19919;-65
2022/03/26 06:31:04;;;;;;;;;;;;;;;-139.34;100.00;63888.56;10640664;27;19923;-66
2022/03/26 06:36:26;;;;;;;;;;;;;;;-139.34;100.00;63888.56;10629667;27;19930;-66
2022/03/26 06:41:48;;;;;;;;;;;;;;;-139.34;100.00;63888.56;10623150;27;19923;-65
2022/03/26 06:47:09;;;;;;;;;;;;;;;-139.34;100.00;63888.56;10618194;27;19919;-66
2022/03/26 06:52:30;;;;;;;;;;;;;;;-139.34;100.00;63888.56;10600897;27;19923;-66
2022/03/26 06:57:52;;;;;;;;;;;;;;;-139.34;100.00;63888.56;10628732;27;19923;-66
2022/03/26 07:03:13;;;;;;;;;;;;;;;-139.34;100.00;63888.56;10620552;27;20442;-66
2022/03/26 07:08:35;;;;;;;;;;;;;;;-139.34;100.00;63888.56;10621043;27;19977;-66
2022/03/26 07:13:56;;;;;;;;;;;;;;;-139.34;100.00;63888.56;10608548;27;19923;-66
2022/03/26 07:19:18;;;;;;;;;;;;;;;-139.34;100.00;63888.56;10606132;27;19938;-65
2022/03/26 07:24:40;;;;;;;;;;;;;;;-139.34;100.00;63888.56;10641331;27;19918;-65
2022/03/26 07:30:02;;;;;;;;;;;;;;;-139.34;100.00;63888.56;10638748;27;19919;-65
2022/03/26 07:35:24;;;;;;;;;;;;;;;-139.34;100.00;63888.56;10621128;27;21162;-65
2022/03/26 07:40:45;;;;;;;;;;;;;;;-139.34;100.00;63888.56;10617017;27;19919;-66
2022/03/26 07:46:07;;;;;;;;;;;;;;;-139.34;100.00;63888.56;10619494;27;19931;-65
2022/03/26 07:51:29;;;;;;;;;;;;;;;-139.34;100.00;63888.56;10632706;27;20100;-66
2022/03/26 07:56:50;;;;;;;;;;;;;;;-139.34;100.00;63888.56;10602002;27;19923;-66
2022/03/26 08:02:12;;;;;;;;;;;;;;;-139.34;100.00;63888.56;10620647;27;20290;-66
2022/03/26 08:07:34;;;;;;;;;;;;;;;-139.34;100.00;63888.56;10633584;27;20506;-65
2022/03/26 08:12:56;;;;;;;;;;;;;;;-139.34;100.00;63888.56;10636500;27;19929;-66
2022/03/26 08:18:17;;;;;;;;;;;;;;;-139.34;100.00;63888.56;10616558;27;19923;-65
2022/03/26 08:23:39;;;;;;;;;;;;;;;-139.34;100.00;63888.56;10616609;27;19927;-65
2022/03/26 08:29:01;;;;;;;;;;;;;;;-139.34;100.00;63888.56;10623094;27;19929;-66
2022/03/26 08:34:22;;;;;;;;;;;;;;;-139.34;100.00;63888.56;10633055;27;19920;-66
2022/03/26 08:39:44;;;;;;;;;;;;;;;-139.34;100.00;63888.56;10630343;27;19929;-66
2022/03/26 08:45:06;;;;;;;;;;;;;;;-139.34;100.00;63888.56;10607358;27;19926;-71
2022/03/26 08:50:27;;;;;;;;;;;;;;;-139.34;100.00;63888.56;10611203;27;19923;-71
2022/03/26 08:55:49;;;;;;;;;;;;;;;-139.34;100.00;63888.56;10634689;27;19927;-71
2022/03/26 09:01:11;;;;;;;;;;;;;;;-139.34;100.00;63888.56;10657381;27;19930;-71
2022/03/26 09:06:34;;;;;;;;;;;;;;;-139.34;100.00;63888.56;10633676;27;19922;-69
2022/03/26 09:11:55;;;;;;;;;;;;;;;-139.34;100.00;63888.56;10631997;27;19923;-68
2022/03/26 09:17:17;;;;;;;;;;;;;;;-139.34;100.00;63888.56;10656135;27;20034;-71
2022/03/26 09:22:38;;;;;;;;;;;;;;;-139.34;100.00;63888.56;10630109;27;19957;-69
2022/03/26 09:28:00;;;;;;;;;;;;;;;-139.34;100.00;63888.56;10621873;27;19923;-72
2022/03/26 09:33:22;;;;;;;;;;;;;;;-139.34;100.00;63888.56;10621589;27;20470;-71
2022/03/26 09:38:43;;;;;;;;;;;;;;;-139.34;100.00;63888.56;10611089;27;19924;-70
2022/03/26 09:44:06;;;;;;;;;;;;;;;-139.34;100.00;63888.56;10626905;27;19934;-69
2022/03/26 09:49:27;;;;;;;;;;;;;;;-139.34;100.00;63888.56;10602342;27;19923;-69
2022/03/26 09:54:49;;;;;;;;;;;;;;;-139.34;100.00;63888.56;10620069;27;19927;-74
2022/03/26 10:00:11;;;;;;;;;;;;;;;-139.34;100.00;63888.56;10604373;27;19923;-67
2022/03/26 10:05:36;;;;;;;;;;;;;;;-139.34;100.00;63888.56;10610361;27;19923;-67
2022/03/26 10:10:57;;;;;;;;;;;;;;;-139.34;100.00;63888.56;10604284;27;19923;-66
2022/03/26 10:16:21;;;;;;;;;;;;;;;-139.34;100.00;63888.56;10626092;27;19976;-67
2022/03/26 10:21:46;;;;;;;;;;;;;;;-139.34;100.00;63888.56;10611010;27;20550;-68
2022/03/26 10:27:11;;;;;;;;;;;;;;;-139.34;100.00;63888.56;10632728;27;19923;-68
2022/03/26 10:32:39;;;;;;;;;;;;;;;-139.34;100.00;63888.56;10629375;27;19922;-67
2022/03/26 10:38:03;;;;;;;;;;;;;;;-139.34;100.00;63888.56;10635248;27;19992;-65
2022/03/26 10:43:24;;;;;;;;;;;;;;;-139.34;100.00;63888.56;10615051;27;19923;-67
2022/03/26 10:48:46;;;;;;;;;;;;;;;-139.34;100.00;63888.56;10605638;27;19924;-67
2022/03/26 10:54:09;;;;;;;;;;;;;;;-139.34;100.00;63888.56;10628279;27;19923;-67
2022/03/26 10:59:31;;;;;;;;;;;;;;;-139.34;100.00;63888.56;10638988;27;19926;-67
2022/03/26 11:04:52;;;;;;;;;;;;;;;-139.34;100.00;63888.56;10626378;27;20279;-67
2022/03/26 11:10:14;;;;;;;;;;;;;;;-139.34;100.00;63888.56;10626613;27;20275;-67
2022/03/26 11:15:41;;;;;;;;;;;;;;;-139.34;100.00;63888.56;10621629;27;19922;-67
2022/03/26 11:21:03;;;;;;;;;;;;;;;-139.34;100.00;63888.56;10641641;27;19993;-66
2022/03/26 11:26:35;;;;;;;;;;;;;;;-139.34;100.00;63888.56;10642786;27;20322;-67
2022/03/26 11:32:07;;;;;;;;;;;;;;;-139.34;100.00;63888.56;10617288;27;19926;-67
2022/03/26 11:37:29;;;;;;;;;;;;;;;-139.34;100.00;63888.56;10606675;27;19927;-67
2022/03/26 11:42:51;;;;;;;;;;;;;;;-139.34;100.00;63888.56;10647460;27;19954;-69
2022/03/26 11:53:56;;;;;;;;;;;;;;;-139.34;100.00;63888.56;10638177;27;19930;-67
2022/03/26 11:59:20;;;;;;;;;;;;;;;-139.34;100.00;63888.56;10623136;27;19930;-66
2022/03/26 12:04:51;;;;;;;;;;;;;;;-139.34;100.00;63888.56;10617473;27;19923;-67
2022/03/26 12:10:17;;;;;;;;;;;;;;;-139.34;100.00;63888.56;10600409;27;20510;-67
2022/03/26 12:15:39;;;;;;;;;;;;;;;-139.34;100.00;63888.56;10622419;27;19923;-67
2022/03/26 12:21:07;;;;;;;;;;;;;;;-139.34;100.00;63888.56;10613225;27;19929;-67
2022/03/26 12:26:29;;;;;;;;;;;;;;;-139.34;100.00;63888.56;10639543;27;19946;-67
2022/03/26 12:31:51;;;;;;;;;;;;;;;-139.34;100.00;63888.56;10619301;27;19922;-68
2022/03/26 12:37:12;;;;;;;;;;;;;;;-139.34;100.00;63888.56;10631411;27;19927;-67
2022/03/26 12:42:34;;;;;;;;;;;;;;;-139.34;100.00;63888.56;10613513;27;19922;-67
2022/03/26 12:47:56;;;;;;;;;;;;;;;-139.34;100.00;63888.56;10612381;27;20377;-67
2022/03/26 12:53:18;;;;;;;;;;;;;;;-139.34;100.00;63888.56;10621263;27;20007;-67
2022/03/26 12:58:59;;;;;;;;;;;;;;;-139.34;100.00;63888.56;10624234;27;19927;-67
2022/03/26 13:04:21;;;;;;;;;;;;;;;-139.34;100.00;63888.56;10618139;27;19919;-67
2022/03/26 13:09:43;;;;;;;;;;;;;;;-139.34;100.00;63888.56;10648249;27;19922;-66
2022/03/26 13:15:04;;;;;;;;;;;;;;;-139.34;100.00;63888.56;10626631;27;19930;-67
2022/03/26 13:20:39;;;;;;;;;;;;;;;-139.34;100.00;63888.56;10617316;27;19926;-66
2022/03/26 13:26:04;;;;;;;;;;;;;;;-139.34;100.00;63888.56;10630723;27;19923;-66
2022/03/26 13:31:25;;;;;;;;;;;;;;;-139.34;100.00;63888.56;10625442;27;20008;-67
2022/03/26 13:36:47;;;;;;;;;;;;;;;-139.34;100.00;63888.56;10624941;27;19923;-66
2022/03/26 13:42:10;;;;;;;;;;;;;;;-139.34;100.00;63888.56;10609210;27;19919;-67
2022/03/26 13:47:36;;;;;;;;;;;;;;;-139.34;100.00;63888.56;10627949;27;20298;-66
2022/03/26 13:52:57;;;;;;;;;;;;;;;-139.34;100.00;63888.56;10616887;27;19922;-67
2022/03/26 13:58:22;;;;;;;;;;;;;;;-139.34;100.00;63888.56;10629219;27;19934;-66
2022/03/26 14:03:44;;;;;;;;;;;;;;;-139.34;100.00;63888.56;10606642;27;19923;-67
2022/03/26 14:09:06;;;;;;;;;;;;;;;-139.34;100.00;63888.56;10610489;27;19934;-67
2022/03/26 14:14:28;;;;;;;;;;;;;;;-139.34;100.00;63888.56;10609263;27;19923;-66
2022/03/26 14:19:49;;;;;;;;;;;;;;;-139.34;100.00;63888.56;10610549;28;20423;-66
2022/03/26 14:25:11;;;;;;;;;;;;;;;-139.34;100.00;63888.56;10603022;27;19934;-68
2022/03/26 14:30:33;;;;;;;;;;;;;;;-139.34;100.00;63888.56;10616034;27;20255;-67
2022/03/26 14:35:55;;;;;;;;;;;;;;;-139.34;100.00;63888.56;10628744;27;19923;-67
2022/03/26 14:41:16;;;;;;;;;;;;;;;-139.34;100.00;63888.56;10626777;27;19919;-67
2022/03/26 14:46:39;;;;;;;;;;;;;;;-139.34;100.00;63888.56;10631078;27;19930;-67
2022/03/26 14:52:00;;;;;;;;;;;;;;;-139.34;100.00;63888.56;10632280;27;20711;-68
2022/03/26 14:57:22;;;;;;;;;;;;;;;-139.34;100.00;63888.56;10603998;27;19919;-65
2022/03/26 15:02:44;;;;;;;;;;;;;;;-139.34;100.00;63888.56;10630123;27;19930;-67
2022/03/26 15:08:05;;;;;;;;;;;;;;;-139.34;100.00;63888.56;10644906;27;19930;-66
2022/03/26 15:13:27;;;;;;;;;;;;;;;-139.34;100.00;63888.56;10625496;27;19924;-67
2022/03/26 15:18:48;;;;;;;;;;;;;;;-139.34;100.00;63888.56;10606472;27;19922;-68
2022/03/26 15:24:10;;;;;;;;;;;;;;;-139.34;100.00;63888.56;10619526;27;19927;-67
2022/03/26 15:29:32;;;;;;;;;;;;;;;-139.34;100.00;63888.56;10636730;27;19930;-67
2022/03/26 15:34:53;;;;;;;;;;;;;;;-139.34;100.00;63888.56;10613928;28;19919;-67
2022/03/26 15:40:15;;;;;;;;;;;;;;;-139.34;100.00;63888.56;10637643;27;20179;-68
2022/03/26 15:45:36;;;;;;;;;;;;;;;-139.34;100.00;63888.56;10620026;27;20358;-68
2022/03/26 15:51:13;;;;;;;;;;;;;;;-139.34;100.00;63888.56;10613437;27;19939;-68
2022/03/26 15:56:37;;;;;;;;;;;;;;;-139.34;100.00;63888.56;10619988;27;20404;-68
2022/03/26 16:01:59;;;;;;;;;;;;;;;-139.34;100.00;63888.56;10626470;27;19923;-68
2022/03/26 16:07:21;;;;;;;;;;;;;;;-139.34;100.00;63888.56;10619450;27;19930;-69
2022/03/26 16:12:45;;;;;;;;;;;;;;;-139.34;100.00;63888.56;10611048;27;19923;-67
2022/03/26 16:18:07;;;;;;;;;;;;;;;-139.34;100.00;63888.56;10617949;27;19927;-71
2022/03/26 16:23:29;;;;;;;;;;;;;;;-139.34;100.00;63888.56;10615353;27;19930;-68
2022/03/26 16:28:51;;;;;;;;;;;;;;;-139.34;100.00;63888.56;10572216;27;1053091;-68
2022/03/26 16:34:12;;;;;;;;;;;;;;;-139.34;100.00;63888.56;10628369;27;19930;-68
2022/03/26 16:39:34;;;;;;;;;;;;;;;-139.34;100.00;63888.56;10615071;27;19930;-68
2022/03/26 16:44:55;;;;;;;;;;;;;;;-139.34;100.00;63888.56;10626110;27;19941;-68
2022/03/26 16:50:17;;;;;;;;;;;;;;;-139.34;100.00;63888.56;10619116;27;20418;-68
2022/03/26 16:55:38;;;;;;;;;;;;;;;-139.34;100.00;63888.56;10602284;27;19922;-66
2022/03/26 17:01:00;;;;;;;;;;;;;;;-139.34;100.00;63888.56;10616511;27;20279;-67
2022/03/26 17:06:26;;;;;;;;;;;;;;;-139.34;100.00;63888.56;10611015;27;19930;-68
2022/03/26 17:11:48;;;;;;;;;;;;;;;-139.34;100.00;63888.56;10632343;27;19931;-70
2022/03/26 17:17:09;;;;;;;;;;;;;;;-139.34;100.00;63888.56;10624160;27;20031;-70
2022/03/26 17:22:31;;;;;;;;;;;;;;;-139.34;100.00;63888.56;10617171;27;19934;-69
2022/03/26 17:27:52;;;;;;;;;;;;;;;-139.34;100.00;63888.56;10632581;27;19966;-68
2022/03/26 17:33:14;;;;;;;;;;;;;;;-139.34;100.00;63888.56;10603263;27;19929;-67
2022/03/26 17:38:36;;;;;;;;;;;;;;;-139.34;100.00;63888.56;10613959;27;19923;-67
2022/03/26 17:43:57;;;;;;;;;;;;;;;-139.34;100.00;63888.56;10611086;27;19930;-67
2022/03/26 17:49:18;;;;;;;;;;;;;;;-139.34;100.00;63888.56;10606820;27;20505;-67
2022/03/26 17:54:41;;;;;;;;;;;;;;;-139.34;100.00;63888.56;10609066;27;19923;-68
2022/03/26 18:00:06;;;;;;;;;;;;;;;-139.34;100.00;63888.56;10605541;27;19927;-68
2022/03/26 18:05:28;;;;;;;;;;;;;;;-139.34;100.00;63888.56;10615041;27;19923;-67
2022/03/26 18:10:50;;;;;;;;;;;;;;;-139.34;100.00;63888.56;10622782;27;19927;-68
2022/03/26 18:16:12;;;;;;;;;;;;;;;-139.34;100.00;63888.56;10650429;27;20042;-68
2022/03/26 18:21:34;;;;;;;;;;;;;;;-139.34;100.00;63888.56;10622122;27;20591;-68
2022/03/26 18:26:56;;;;;;;;;;;;;;;-139.34;100.00;63888.56;10612583;28;19962;-67
2022/03/26 18:32:18;;;;;;;;;;;;;;;-139.34;100.00;63888.56;10587329;27;20366;-68
2022/03/26 18:37:40;;;;;;;;;;;;;;;-139.34;100.00;63888.56;10594158;28;19931;-68
2022/03/26 18:43:02;;;;;;;;;;;;;;;-139.34;100.00;63888.56;10575053;28;20591;-68
2022/03/26 18:48:24;;;;;;;;;;;;;;;-139.34;100.00;63888.56;10585918;28;20366;-68
2022/03/26 18:53:46;;;;;;;;;;;;;;;-139.34;100.00;63888.56;10598172;28;19931;-67
2022/03/26 18:59:08;;;;;;;;;;;;;;;-139.34;100.00;63888.56;10581391;28;20257;-68
2022/03/26 19:04:30;;;;;;;;;;;;;;;-139.34;100.00;63888.56;10573735;27;19930;-68
2022/03/26 19:09:51;;;;;;;;;;;;;;;-139.34;100.00;63888.56;10593207;28;19923;-68
2022/03/26 19:15:13;;;;;;;;;;;;;;;-139.34;100.00;63888.56;10578451;28;19923;-68
2022/03/26 19:20:35;;;;;;;;;;;;;;;-139.34;100.00;63888.56;10587323;27;19963;-68
2022/03/26 19:25:56;;;;;;;;;;;;;;;-139.34;100.00;63888.56;10579453;27;20379;-68
2022/03/26 19:31:19;;;;;;;;;;;;;;;-139.34;100.00;63888.56;10574977;27;19934;-68
2022/03/26 19:36:40;;;;;;;;;;;;;;;-139.34;100.00;63888.56;10568725;27;20291;-68
2022/03/26 19:42:03;;;;;;;;;;;;;;;-139.34;100.00;63888.56;10584924;27;20567;-68
2022/03/26 19:47:24;;;;;;;;;;;;;;;-139.34;100.00;63888.56;10595657;27;19939;-66
2022/03/26 19:52:46;;;;;;;;;;;;;;;-139.34;100.00;63888.56;10590590;27;19926;-66
2022/03/26 19:58:10;;;;;;;;;;;;;;;-139.34;100.00;63888.56;10592241;27;20268;-66
2022/03/26 20:03:31;;;;;;;;;;;;;;;-139.34;100.00;63888.56;10564892;27;19951;-67
2022/03/26 20:08:53;;;;;;;;;;;;;;;-139.34;100.00;63888.56;10589481;27;20003;-66
2022/03/26 20:14:14;;;;;;;;;;;;;;;-139.34;100.00;63888.56;10591914;27;19928;-66
2022/03/26 20:19:36;;;;;;;;;;;;;;;-139.34;100.00;63888.56;10589544;27;19953;-66
2022/03/26 20:24:57;;;;;;;;;;;;;;;-139.34;100.00;63888.56;10576219;27;19920;-67
2022/03/26 20:30:19;;;;;;;;;;;;;;;-139.34;100.00;63888.56;10589944;27;20658;-67
2022/03/26 20:35:41;;;;;;;;;;;;;;;-139.34;100.00;63888.56;10586854;27;20290;-66
2022/03/26 20:41:02;;;;;;;;;;;;;;;-139.34;100.00;63888.56;10567368;27;19920;-66
2022/03/26 20:46:27;;;;;;;;;;;;;;;-139.34;100.00;63888.56;10588782;27;20022;-67
2022/03/26 20:51:49;;;;;;;;;;;;;;;-139.34;100.00;63888.56;10573498;27;19919;-67
2022/03/26 20:57:10;;;;;;;;;;;;;;;-139.34;100.00;63888.56;10565289;27;19927;-66
2022/03/26 21:02:32;;;;;;;;;;;;;;;-139.34;100.00;63888.56;10588491;27;19934;-67
2022/03/26 21:07:54;;;;;;;;;;;;;;;-139.34;100.00;63888.56;10581824;27;20264;-67
2022/03/26 21:13:15;;;;;;;;;;;;;;;-139.34;100.00;63888.56;10583518;27;19931;-67
2022/03/26 21:18:37;;;;;;;;;;;;;;;-139.34;100.00;63888.56;10572842;27;19924;-67
2022/03/26 21:23:59;;;;;;;;;;;;;;;-139.34;100.00;63888.56;10575543;27;19920;-67
2022/03/26 21:29:20;;;;;;;;;;;;;;;-139.34;100.00;63888.56;10589712;27;19920;-67
2022/03/26 21:34:42;;;;;;;;;;;;;;;-139.34;100.00;63888.56;10617020;27;19927;-67
2022/03/26 21:40:05;;;;;;;;;;;;;;;-139.34;100.00;63888.56;10606448;27;19926;-66
2022/03/26 21:45:27;;;;;;;;;;;;;;;-139.34;100.00;63888.56;10593447;27;20379;-67
2022/03/26 21:50:48;;;;;;;;;;;;;;;-139.34;100.00;63888.56;10595415;27;19919;-67
2022/03/26 21:56:10;;;;;;;;;;;;;;;-139.34;100.00;63888.56;10621874;27;19972;-66
2022/03/26 22:01:31;;;;;;;;;;;;;;;-139.34;100.00;63888.56;10643029;27;19922;-67
2022/03/26 22:06:53;;;;;;;;;;;;;;;-139.34;100.00;63888.56;10600633;27;20309;-67
2022/03/26 22:12:15;;;;;;;;;;;;;;;-139.34;100.00;63888.56;10589636;27;19919;-67
2022/03/26 22:17:36;;;;;;;;;;;;;;;-139.34;100.00;63888.56;10602112;27;19931;-67
2022/03/26 22:22:58;;;;;;;;;;;;;;;-139.34;100.00;63888.56;10616098;27;20438;-67
2022/03/26 22:28:19;;;;;;;;;;;;;;;-139.34;100.00;63888.56;10644491;27;19919;-67
2022/03/26 22:33:41;;;;;;;;;;;;;;;-139.34;100.00;63888.56;10600639;28;20382;-66
2022/03/26 22:39:03;;;;;;;;;;;;;;;-139.34;100.00;63888.56;10583932;28;19923;-66
2022/03/26 22:44:24;;;;;;;;;;;;;;;-139.34;100.00;63888.56;10581528;27;20368;-67
2022/03/26 22:49:47;;;;;;;;;;;;;;;-139.34;100.00;63888.56;10598695;28;20280;-67
2022/03/26 22:55:09;;;;;;;;;;;;;;;-139.34;100.00;63888.56;10604793;27;19919;-66
2022/03/26 23:00:40;;;;;;;;;;;;;;;-139.34;100.00;63888.56;10674228;27;19915;-67
2022/03/26 23:06:02;;;;;;;;;;;;;;;-139.34;100.00;63888.56;10582684;27;19927;-67
2022/03/26 23:11:23;;;;;;;;;;;;;;;-139.34;100.00;63888.56;10579775;27;19919;-67
2022/03/26 23:16:45;;;;;;;;;;;;;;;-139.34;100.00;63888.56;10608926;27;19926;-66
2022/03/26 23:22:07;;;;;;;;;;;;;;;-139.34;100.00;63888.56;10590699;27;19919;-67
2022/03/26 23:27:28;;;;;;;;;;;;;;;-139.34;100.00;63888.56;10607504;27;19923;-67
2022/03/26 23:32:51;;;;;;;;;;;;;;;-139.34;100.00;63888.56;10631613;27;19919;-67
2022/03/26 23:38:12;;;;;;;;;;;;;;;-139.34;100.00;63888.56;10633392;27;20387;-67
2022/03/26 23:43:44;;;;;;;;;;;;;;;-139.34;100.00;63888.56;10598001;27;19930;-66
2022/03/26 23:49:06;;;;;;;;;;;;;;;-139.34;100.00;63888.56;10607293;27;19934;-67
2022/03/26 23:54:27;;;;;;;;;;;;;;;-139.34;100.00;63888.56;10590017;27;19919;-66
2022/03/26 23:59:49;;;;;;;;;;;;;;;-139.34;100.00;63888.56;10671594;27;19986;-67
